sensor_id;sensor_type;location;lat;lon;timestamp;temperature;humidity
47921;DHT22;33686;48.770;9.186;2023-06-10T05:16:01;23.70;99.90
47921;DHT22;33686;48.770;9.186;2023-06-10T05:18:27;24.90;99.90
47921;DHT22;33686;48.770;9.186;2023-06-10T05:20:53;24.50;99.90
47921;DHT22;33686;48.770;9.186;2023-06-10T05:23:19;24.50;99.90
47921;DHT22;33686;48.770;9.186;2023-06-10T05:25:45;25.30;99.90
47921;DHT22;33686;48.770;9.186;2023-06-10T05:28:11;25.80;99.90
47921;DHT22;33686;48.770;9.186;2023-06-10T05:30:36;26.20;99.90
47921;DHT22;33686;48.770;9.186;2023-06-10T05:33:02;26.50;99.10
47921;DHT22;33686;48.770;9.186;2023-06-10T05:35:28;26.90;98.10
47921;DHT22;33686;48.770;9.186;2023-06-10T05:37:53;26.60;98.20
47921;DHT22;33686;48.770;9.186;2023-06-10T05:40:19;26.50;98.30
47921;DHT22;33686;48.770;9.186;2023-06-10T05:42:45;26.40;98.40
47921;DHT22;33686;48.770;9.186;2023-06-10T05:45:10;26.40;98.50
47921;DHT22;33686;48.770;9.186;2023-06-10T05:47:36;26.40;98.40
47921;DHT22;33686;48.770;9.186;2023-06-10T05:50:01;26.20;98.70
47921;DHT22;33686;48.770;9.186;2023-06-10T05:52:27;26.30;98.70
47921;DHT22;33686;48.770;9.186;2023-06-10T05:54:53;26.10;98.90
47921;DHT22;33686;48.770;9.186;2023-06-10T05:57:19;27.10;98.00
47921;DHT22;33686;48.770;9.186;2023-06-10T05:59:45;27.00;97.60
47921;DHT22;33686;48.770;9.186;2023-06-10T06:02:10;27.00;97.70
47921;DHT22;33686;48.770;9.186;2023-06-10T06:04:36;26.50;98.10
47921;DHT22;33686;48.770;9.186;2023-06-10T06:07:02;26.50;98.20
47921;DHT22;33686;48.770;9.186;2023-06-10T06:09:27;26.40;98.10
47921;DHT22;33686;48.770;9.186;2023-06-10T06:11:53;27.20;97.90
47921;DHT22;33686;48.770;9.186;2023-06-10T06:14:18;27.10;97.50
47921;DHT22;33686;48.770;9.186;2023-06-10T06:16:44;26.70;97.90
47921;DHT22;33686;48.770;9.186;2023-06-10T06:19:09;26.60;98.10
47921;DHT22;33686;48.770;9.186;2023-06-10T06:21:36;27.30;97.70
47921;DHT22;33686;48.770;9.186;2023-06-10T06:24:02;28.30;96.70
47921;DHT22;33686;48.770;9.186;2023-06-10T06:26:27;27.30;97.60
47921;DHT22;33686;48.770;9.186;2023-06-10T06:28:53;26.70;97.70
47921;DHT22;33686;48.770;9.186;2023-06-10T06:31:18;26.90;98.10
47921;DHT22;33686;48.770;9.186;2023-06-10T06:33:44;28.20;97.10
47921;DHT22;33686;48.770;9.186;2023-06-10T06:36:09;28.00;97.00
47921;DHT22;33686;48.770;9.186;2023-06-10T06:38:35;28.60;96.60
47921;DHT22;33686;48.770;9.186;2023-06-10T06:41:01;29.30;96.00
47921;DHT22;33686;48.770;9.186;2023-06-10T06:43:29;28.70;96.50
47921;DHT22;33686;48.770;9.186;2023-06-10T06:46:02;27.90;97.00
47921;DHT22;33686;48.770;9.186;2023-06-10T06:48:28;28.70;96.40
47921;DHT22;33686;48.770;9.186;2023-06-10T06:50:53;30.00;94.90
47921;DHT22;33686;48.770;9.186;2023-06-10T06:53:21;29.60;95.30
47921;DHT22;33686;48.770;9.186;2023-06-10T06:55:47;29.30;95.40
47921;DHT22;33686;48.770;9.186;2023-06-10T06:58:12;29.50;95.20
47921;DHT22;33686;48.770;9.186;2023-06-10T07:00:38;30.20;94.70
47921;DHT22;33686;48.770;9.186;2023-06-10T07:03:03;29.80;94.80
47921;DHT22;33686;48.770;9.186;2023-06-10T07:05:29;30.30;94.40
47921;DHT22;33686;48.770;9.186;2023-06-10T07:07:56;31.30;93.60
47921;DHT22;33686;48.770;9.186;2023-06-10T07:10:22;30.80;93.70
47921;DHT22;33686;48.770;9.186;2023-06-10T07:12:48;30.30;94.10
47921;DHT22;33686;48.770;9.186;2023-06-10T07:15:13;30.70;93.70
47921;DHT22;33686;48.770;9.186;2023-06-10T07:17:39;31.00;93.50
47921;DHT22;33686;48.770;9.186;2023-06-10T07:20:05;30.00;94.00
47921;DHT22;33686;48.770;9.186;2023-06-10T07:22:30;30.20;93.80
47921;DHT22;33686;48.770;9.186;2023-06-10T07:24:56;30.80;93.40
47921;DHT22;33686;48.770;9.186;2023-06-10T07:27:21;31.00;93.10
47921;DHT22;33686;48.770;9.186;2023-06-10T07:29:47;30.90;93.10
47921;DHT22;33686;48.770;9.186;2023-06-10T07:32:12;31.40;92.90
47921;DHT22;33686;48.770;9.186;2023-06-10T07:34:38;31.50;92.40
47921;DHT22;33686;48.770;9.186;2023-06-10T07:37:03;32.10;92.00
47921;DHT22;33686;48.770;9.186;2023-06-10T07:39:29;30.30;93.00
47921;DHT22;33686;48.770;9.186;2023-06-10T07:41:55;29.30;93.80
47921;DHT22;33686;48.770;9.186;2023-06-10T07:44:23;29.20;94.20
47921;DHT22;33686;48.770;9.186;2023-06-10T07:46:48;29.20;94.30
47921;DHT22;33686;48.770;9.186;2023-06-10T07:49:14;28.50;94.80
47921;DHT22;33686;48.770;9.186;2023-06-10T07:51:39;29.00;94.60
47921;DHT22;33686;48.770;9.186;2023-06-10T07:54:05;29.00;94.50
47921;DHT22;33686;48.770;9.186;2023-06-10T07:56:31;29.50;94.30
47921;DHT22;33686;48.770;9.186;2023-06-10T07:58:57;29.30;94.20
47921;DHT22;33686;48.770;9.186;2023-06-10T08:01:22;29.90;93.70
47921;DHT22;33686;48.770;9.186;2023-06-10T08:03:48;30.10;93.60
47921;DHT22;33686;48.770;9.186;2023-06-10T08:06:14;29.40;94.30
47921;DHT22;33686;48.770;9.186;2023-06-10T08:08:39;30.50;93.60
47921;DHT22;33686;48.770;9.186;2023-06-10T08:11:08;30.10;93.40
47921;DHT22;33686;48.770;9.186;2023-06-10T08:13:34;30.30;93.50
47921;DHT22;33686;48.770;9.186;2023-06-10T08:15:59;29.90;93.90
47921;DHT22;33686;48.770;9.186;2023-06-10T08:18:26;30.00;93.90
47921;DHT22;33686;48.770;9.186;2023-06-10T08:20:52;30.60;93.50
47921;DHT22;33686;48.770;9.186;2023-06-10T08:23:17;31.20;93.10
47921;DHT22;33686;48.770;9.186;2023-06-10T08:25:45;30.90;92.80
47921;DHT22;33686;48.770;9.186;2023-06-10T08:28:10;31.60;92.50
47921;DHT22;33686;48.770;9.186;2023-06-10T08:30:36;30.50;93.00
47921;DHT22;33686;48.770;9.186;2023-06-10T08:33:01;30.20;93.10
47921;DHT22;33686;48.770;9.186;2023-06-10T08:35:27;30.10;92.80
47921;DHT22;33686;48.770;9.186;2023-06-10T08:37:52;28.70;94.00
47921;DHT22;33686;48.770;9.186;2023-06-10T08:40:18;29.70;93.70
47921;DHT22;33686;48.770;9.186;2023-06-10T08:42:45;30.00;93.50
47921;DHT22;33686;48.770;9.186;2023-06-10T08:45:15;30.30;93.10
47921;DHT22;33686;48.770;9.186;2023-06-10T08:47:42;30.50;93.00
47921;DHT22;33686;48.770;9.186;2023-06-10T08:50:09;30.40;92.80
47921;DHT22;33686;48.770;9.186;2023-06-10T08:52:35;30.70;92.90
47921;DHT22;33686;48.770;9.186;2023-06-10T08:55:03;30.40;92.20
47921;DHT22;33686;48.770;9.186;2023-06-10T08:57:30;29.60;92.70
47921;DHT22;33686;48.770;9.186;2023-06-10T08:59:56;29.10;93.60
47921;DHT22;33686;48.770;9.186;2023-06-10T09:02:22;29.20;93.10
47921;DHT22;33686;48.770;9.186;2023-06-10T09:04:47;29.80;92.70
47921;DHT22;33686;48.770;9.186;2023-06-10T09:07:17;29.30;92.50
47921;DHT22;33686;48.770;9.186;2023-06-10T09:09:44;28.80;93.00
47921;DHT22;33686;48.770;9.186;2023-06-10T09:12:10;28.80;93.40
47921;DHT22;33686;48.770;9.186;2023-06-10T09:14:35;28.80;93.00
47921;DHT22;33686;48.770;9.186;2023-06-10T09:17:01;29.20;93.00
47921;DHT22;33686;48.770;9.186;2023-06-10T09:19:27;29.20;92.70
47921;DHT22;33686;48.770;9.186;2023-06-10T09:21:53;28.70;93.30
47921;DHT22;33686;48.770;9.186;2023-06-10T09:24:20;28.70;93.20
47921;DHT22;33686;48.770;9.186;2023-06-10T09:26:47;28.50;93.40
47921;DHT22;33686;48.770;9.186;2023-06-10T09:29:12;28.40;93.80
47921;DHT22;33686;48.770;9.186;2023-06-10T09:31:38;28.40;93.90
47921;DHT22;33686;48.770;9.186;2023-06-10T09:34:08;28.70;93.40
47921;DHT22;33686;48.770;9.186;2023-06-10T09:36:34;28.40;93.70
47921;DHT22;33686;48.770;9.186;2023-06-10T09:39:00;28.50;93.60
47921;DHT22;33686;48.770;9.186;2023-06-10T09:41:35;28.60;93.40
47921;DHT22;33686;48.770;9.186;2023-06-10T09:44:01;28.00;93.80
47921;DHT22;33686;48.770;9.186;2023-06-10T09:46:30;28.40;93.90
47921;DHT22;33686;48.770;9.186;2023-06-10T09:48:59;29.10;93.30
47921;DHT22;33686;48.770;9.186;2023-06-10T09:51:25;29.40;93.00
47921;DHT22;33686;48.770;9.186;2023-06-10T09:53:51;29.10;92.90
47921;DHT22;33686;48.770;9.186;2023-06-10T09:56:17;28.10;93.60
47921;DHT22;33686;48.770;9.186;2023-06-10T09:58:42;28.20;93.80
47921;DHT22;33686;48.770;9.186;2023-06-10T10:01:11;28.30;93.60
47921;DHT22;33686;48.770;9.186;2023-06-10T10:03:43;28.10;93.80
47921;DHT22;33686;48.770;9.186;2023-06-10T10:06:10;28.20;93.80
47921;DHT22;33686;48.770;9.186;2023-06-10T10:08:36;27.60;94.10
47921;DHT22;33686;48.770;9.186;2023-06-10T10:11:01;27.20;94.70
47921;DHT22;33686;48.770;9.186;2023-06-10T10:13:28;26.80;95.30
47921;DHT22;33686;48.770;9.186;2023-06-10T10:15:55;26.80;95.30
47921;DHT22;33686;48.770;9.186;2023-06-10T10:18:22;26.50;95.40
47921;DHT22;33686;48.770;9.186;2023-06-10T10:20:54;26.50;95.70
47921;DHT22;33686;48.770;9.186;2023-06-10T10:23:32;26.60;95.50
47921;DHT22;33686;48.770;9.186;2023-06-10T10:26:00;26.60;95.70
47921;DHT22;33686;48.770;9.186;2023-06-10T10:28:29;26.60;95.60
47921;DHT22;33686;48.770;9.186;2023-06-10T10:31:01;26.20;95.80
47921;DHT22;33686;48.770;9.186;2023-06-10T10:34:04;26.40;95.50
47921;DHT22;33686;48.770;9.186;2023-06-10T10:36:22;26.50;95.20
47921;DHT22;33686;48.770;9.186;2023-06-10T10:38:48;26.40;95.60
47921;DHT22;33686;48.770;9.186;2023-06-10T10:41:15;26.50;96.00
47921;DHT22;33686;48.770;9.186;2023-06-10T10:43:41;26.70;95.80
47921;DHT22;33686;48.770;9.186;2023-06-10T10:46:11;26.90;95.30
47921;DHT22;33686;48.770;9.186;2023-06-10T10:48:37;26.70;94.90
47921;DHT22;33686;48.770;9.186;2023-06-10T10:51:03;26.40;94.90
47921;DHT22;33686;48.770;9.186;2023-06-10T10:53:29;26.50;95.00
47921;DHT22;33686;48.770;9.186;2023-06-10T10:58:38;26.70;94.90
47921;DHT22;33686;48.770;9.186;2023-06-10T11:01:13;26.50;94.50
47921;DHT22;33686;48.770;9.186;2023-06-10T11:03:45;26.90;94.40
47921;DHT22;33686;48.770;9.186;2023-06-10T11:06:15;26.90;94.40
47921;DHT22;33686;48.770;9.186;2023-06-10T11:11:20;27.20;94.70
47921;DHT22;33686;48.770;9.186;2023-06-10T11:14:19;26.70;94.80
47921;DHT22;33686;48.770;9.186;2023-06-10T11:16:41;26.50;95.00
47921;DHT22;33686;48.770;9.186;2023-06-10T11:19:07;26.60;95.10
47921;DHT22;33686;48.770;9.186;2023-06-10T11:21:36;26.60;94.90
47921;DHT22;33686;48.770;9.186;2023-06-10T11:24:11;27.00;95.00
47921;DHT22;33686;48.770;9.186;2023-06-10T11:26:43;27.10;94.80
47921;DHT22;33686;48.770;9.186;2023-06-10T11:29:09;26.80;95.00
47921;DHT22;33686;48.770;9.186;2023-06-10T11:31:38;26.50;95.40
47921;DHT22;33686;48.770;9.186;2023-06-10T11:34:05;26.80;95.20
47921;DHT22;33686;48.770;9.186;2023-06-10T11:36:32;26.70;95.30
47921;DHT22;33686;48.770;9.186;2023-06-10T11:38:58;26.60;95.00
47921;DHT22;33686;48.770;9.186;2023-06-10T11:41:24;26.80;94.80
47921;DHT22;33686;48.770;9.186;2023-06-10T11:43:54;26.60;94.80
47921;DHT22;33686;48.770;9.186;2023-06-10T11:46:22;26.40;95.10
47921;DHT22;33686;48.770;9.186;2023-06-10T11:48:54;26.90;95.20
47921;DHT22;33686;48.770;9.186;2023-06-10T11:51:20;27.30;95.10
47921;DHT22;33686;48.770;9.186;2023-06-10T11:53:46;27.80;94.20
47921;DHT22;33686;48.770;9.186;2023-06-10T11:56:12;28.00;93.60
47921;DHT22;33686;48.770;9.186;2023-06-10T11:58:38;28.00;94.00
47921;DHT22;33686;48.770;9.186;2023-06-10T12:01:05;27.30;93.80
47921;DHT22;33686;48.770;9.186;2023-06-10T12:03:37;27.60;93.60
47921;DHT22;33686;48.770;9.186;2023-06-10T12:06:04;27.30;94.00
47921;DHT22;33686;48.770;9.186;2023-06-10T12:08:30;27.50;94.20
47921;DHT22;33686;48.770;9.186;2023-06-10T12:10:55;27.50;94.20
47921;DHT22;33686;48.770;9.186;2023-06-10T12:13:21;27.50;94.20
47921;DHT22;33686;48.770;9.186;2023-06-10T12:15:48;27.40;93.90
47921;DHT22;33686;48.770;9.186;2023-06-10T12:18:20;27.30;94.50
47921;DHT22;33686;48.770;9.186;2023-06-10T12:20:46;27.40;94.20
47921;DHT22;33686;48.770;9.186;2023-06-10T12:23:12;27.50;93.80
47921;DHT22;33686;48.770;9.186;2023-06-10T12:25:38;27.40;93.80
47921;DHT22;33686;48.770;9.186;2023-06-10T12:28:05;27.20;94.10
47921;DHT22;33686;48.770;9.186;2023-06-10T12:30:31;27.20;93.70
47921;DHT22;33686;48.770;9.186;2023-06-10T12:32:56;27.00;93.60
47921;DHT22;33686;48.770;9.186;2023-06-10T12:35:23;26.80;93.20
47921;DHT22;33686;48.770;9.186;2023-06-10T12:37:58;26.80;93.40
47921;DHT22;33686;48.770;9.186;2023-06-10T12:40:29;26.80;93.00
47921;DHT22;33686;48.770;9.186;2023-06-10T12:42:55;26.60;93.70
47921;DHT22;33686;48.770;9.186;2023-06-10T12:45:28;26.70;93.70
47921;DHT22;33686;48.770;9.186;2023-06-10T12:48:07;26.60;93.80
47921;DHT22;33686;48.770;9.186;2023-06-10T12:50:34;26.50;93.80
47921;DHT22;33686;48.770;9.186;2023-06-10T12:53:00;27.10;93.80
47921;DHT22;33686;48.770;9.186;2023-06-10T12:55:26;27.60;93.20
47921;DHT22;33686;48.770;9.186;2023-06-10T12:57:54;27.60;92.90
47921;DHT22;33686;48.770;9.186;2023-06-10T13:00:20;27.90;92.60
47921;DHT22;33686;48.770;9.186;2023-06-10T13:02:47;27.90;92.90
47921;DHT22;33686;48.770;9.186;2023-06-10T13:05:13;28.00;92.60
47921;DHT22;33686;48.770;9.186;2023-06-10T13:07:39;27.70;92.90
47921;DHT22;33686;48.770;9.186;2023-06-10T13:10:04;27.40;93.10
47921;DHT22;33686;48.770;9.186;2023-06-10T13:12:30;27.60;93.30
47921;DHT22;33686;48.770;9.186;2023-06-10T13:14:56;27.60;93.20
47921;DHT22;33686;48.770;9.186;2023-06-10T13:17:21;27.80;93.00
47921;DHT22;33686;48.770;9.186;2023-06-10T13:19:47;27.80;92.90
47921;DHT22;33686;48.770;9.186;2023-06-10T13:22:14;27.60;92.80
47921;DHT22;33686;48.770;9.186;2023-06-10T13:24:40;27.40;93.10
47921;DHT22;33686;48.770;9.186;2023-06-10T13:27:06;27.10;93.30
47921;DHT22;33686;48.770;9.186;2023-06-10T13:29:32;27.20;93.20
47921;DHT22;33686;48.770;9.186;2023-06-10T13:31:57;27.50;93.20
47921;DHT22;33686;48.770;9.186;2023-06-10T13:34:23;27.50;92.90
47921;DHT22;33686;48.770;9.186;2023-06-10T13:36:49;27.70;92.70
47921;DHT22;33686;48.770;9.186;2023-06-10T13:39:14;28.00;92.20
47921;DHT22;33686;48.770;9.186;2023-06-10T13:41:41;28.20;92.20
47921;DHT22;33686;48.770;9.186;2023-06-10T13:44:07;28.10;92.10
47921;DHT22;33686;48.770;9.186;2023-06-10T13:46:32;28.20;92.00
47921;DHT22;33686;48.770;9.186;2023-06-10T13:48:58;28.40;92.10
47921;DHT22;33686;48.770;9.186;2023-06-10T13:51:23;27.80;92.40
47921;DHT22;33686;48.770;9.186;2023-06-10T13:53:49;27.60;92.60
47921;DHT22;33686;48.770;9.186;2023-06-10T13:56:17;27.60;92.60
47921;DHT22;33686;48.770;9.186;2023-06-10T13:58:43;27.40;92.70
47921;DHT22;33686;48.770;9.186;2023-06-10T14:01:08;27.30;92.80
47921;DHT22;33686;48.770;9.186;2023-06-10T14:03:34;27.30;92.80
47921;DHT22;33686;48.770;9.186;2023-06-10T14:05:59;27.30;92.90
47921;DHT22;33686;48.770;9.186;2023-06-10T14:08:25;27.60;92.00
47921;DHT22;33686;48.770;9.186;2023-06-10T14:10:50;27.50;92.00
47921;DHT22;33686;48.770;9.186;2023-06-10T14:13:16;27.80;92.20
47921;DHT22;33686;48.770;9.186;2023-06-10T14:15:42;27.90;91.90
47921;DHT22;33686;48.770;9.186;2023-06-10T14:18:08;28.10;91.70
47921;DHT22;33686;48.770;9.186;2023-06-10T14:20:33;28.10;91.90
47921;DHT22;33686;48.770;9.186;2023-06-10T14:22:59;28.40;91.80
47921;DHT22;33686;48.770;9.186;2023-06-10T14:25:24;28.40;91.70
47921;DHT22;33686;48.770;9.186;2023-06-10T14:27:50;27.80;92.30
47921;DHT22;33686;48.770;9.186;2023-06-10T14:30:16;27.50;92.20
47921;DHT22;33686;48.770;9.186;2023-06-10T14:32:41;27.20;92.30
47921;DHT22;33686;48.770;9.186;2023-06-10T14:35:07;27.10;92.50
47921;DHT22;33686;48.770;9.186;2023-06-10T14:37:33;27.20;92.30
47921;DHT22;33686;48.770;9.186;2023-06-10T14:39:58;27.60;91.90
47921;DHT22;33686;48.770;9.186;2023-06-10T14:42:24;27.80;91.80
47921;DHT22;33686;48.770;9.186;2023-06-10T14:44:49;28.10;91.50
47921;DHT22;33686;48.770;9.186;2023-06-10T14:47:16;28.10;91.50
47921;DHT22;33686;48.770;9.186;2023-06-10T14:49:41;28.00;91.80
47921;DHT22;33686;48.770;9.186;2023-06-10T14:52:07;27.40;92.60
47921;DHT22;33686;48.770;9.186;2023-06-10T14:54:33;27.30;92.90
47921;DHT22;33686;48.770;9.186;2023-06-10T14:56:59;27.20;93.00
47921;DHT22;33686;48.770;9.186;2023-06-10T14:59:24;27.10;93.10
47921;DHT22;33686;48.770;9.186;2023-06-10T15:01:50;26.90;92.60
47921;DHT22;33686;48.770;9.186;2023-06-10T15:04:15;26.70;93.00
47921;DHT22;33686;48.770;9.186;2023-06-10T15:06:41;26.70;93.10
47921;DHT22;33686;48.770;9.186;2023-06-10T15:09:07;26.80;93.20
47921;DHT22;33686;48.770;9.186;2023-06-10T15:11:33;27.20;92.80
47921;DHT22;33686;48.770;9.186;2023-06-10T15:13:58;27.30;92.90
47921;DHT22;33686;48.770;9.186;2023-06-10T15:16:24;27.40;92.70
47921;DHT22;33686;48.770;9.186;2023-06-10T15:18:49;27.40;92.90
47921;DHT22;33686;48.770;9.186;2023-06-10T15:21:15;27.50;93.10
47921;DHT22;33686;48.770;9.186;2023-06-10T15:23:41;27.60;92.90
47921;DHT22;33686;48.770;9.186;2023-06-10T15:26:06;27.50;93.10
47921;DHT22;33686;48.770;9.186;2023-06-10T15:28:32;27.50;93.10
47921;DHT22;33686;48.770;9.186;2023-06-10T15:30:57;27.50;93.10
47921;DHT22;33686;48.770;9.186;2023-06-10T15:33:23;27.60;93.00
47921;DHT22;33686;48.770;9.186;2023-06-10T15:35:48;27.80;92.70
47921;DHT22;33686;48.770;9.186;2023-06-10T15:38:14;27.60;92.40
47921;DHT22;33686;48.770;9.186;2023-06-10T15:40:40;27.40;92.00
47921;DHT22;33686;48.770;9.186;2023-06-10T15:43:06;27.40;91.80
47921;DHT22;33686;48.770;9.186;2023-06-10T15:45:32;27.40;92.00
47921;DHT22;33686;48.770;9.186;2023-06-10T15:47:57;27.50;92.10
47921;DHT22;33686;48.770;9.186;2023-06-10T15:50:23;27.60;92.00
47921;DHT22;33686;48.770;9.186;2023-06-10T15:52:49;27.80;92.20
47921;DHT22;33686;48.770;9.186;2023-06-10T15:55:14;27.90;92.10
47921;DHT22;33686;48.770;9.186;2023-06-10T15:57:40;28.00;92.30
47921;DHT22;33686;48.770;9.186;2023-06-10T16:00:06;27.90;92.30
47921;DHT22;33686;48.770;9.186;2023-06-10T16:02:31;27.80;92.20
47921;DHT22;33686;48.770;9.186;2023-06-10T16:04:57;27.80;92.10
47921;DHT22;33686;48.770;9.186;2023-06-10T16:07:24;27.80;92.20
47921;DHT22;33686;48.770;9.186;2023-06-10T16:09:50;27.40;91.50
47921;DHT22;33686;48.770;9.186;2023-06-10T16:12:15;27.20;91.70
47921;DHT22;33686;48.770;9.186;2023-06-10T16:14:41;27.00;91.60
47921;DHT22;33686;48.770;9.186;2023-06-10T16:17:06;27.00;92.10
47921;DHT22;33686;48.770;9.186;2023-06-10T16:19:32;27.10;92.20
47921;DHT22;33686;48.770;9.186;2023-06-10T16:21:57;27.20;92.00
47921;DHT22;33686;48.770;9.186;2023-06-10T16:24:23;27.20;92.10
47921;DHT22;33686;48.770;9.186;2023-06-10T16:26:49;27.30;92.30
47921;DHT22;33686;48.770;9.186;2023-06-10T16:29:15;27.30;92.40
47921;DHT22;33686;48.770;9.186;2023-06-10T16:31:40;27.40;92.60
47921;DHT22;33686;48.770;9.186;2023-06-10T16:34:06;27.40;92.70
47921;DHT22;33686;48.770;9.186;2023-06-10T16:36:32;27.40;92.70
47921;DHT22;33686;48.770;9.186;2023-06-10T16:38:57;27.70;92.60
47921;DHT22;33686;48.770;9.186;2023-06-10T16:41:23;27.80;92.30
47921;DHT22;33686;48.770;9.186;2023-06-10T16:43:48;27.60;92.60
47921;DHT22;33686;48.770;9.186;2023-06-10T16:46:14;27.50;92.00
47921;DHT22;33686;48.770;9.186;2023-06-10T16:48:39;27.30;92.00
47921;DHT22;33686;48.770;9.186;2023-06-10T16:51:07;27.20;92.00
47921;DHT22;33686;48.770;9.186;2023-06-10T16:53:32;27.30;92.00
47921;DHT22;33686;48.770;9.186;2023-06-10T16:55:58;27.30;92.20
47921;DHT22;33686;48.770;9.186;2023-06-10T16:58:23;27.40;92.20
47921;DHT22;33686;48.770;9.186;2023-06-10T17:00:49;27.50;92.20
47921;DHT22;33686;48.770;9.186;2023-06-10T17:03:15;27.50;91.90
47921;DHT22;33686;48.770;9.186;2023-06-10T17:05:40;27.40;92.20
47921;DHT22;33686;48.770;9.186;2023-06-10T17:08:06;27.40;92.30
47921;DHT22;33686;48.770;9.186;2023-06-10T17:10:32;27.40;92.20
47921;DHT22;33686;48.770;9.186;2023-06-10T17:12:57;27.40;92.40
47921;DHT22;33686;48.770;9.186;2023-06-10T17:15:23;27.50;92.60
47921;DHT22;33686;48.770;9.186;2023-06-10T17:17:48;27.60;92.50
47921;DHT22;33686;48.770;9.186;2023-06-10T17:20:14;27.50;92.60
47921;DHT22;33686;48.770;9.186;2023-06-10T17:22:39;27.40;92.60
47921;DHT22;33686;48.770;9.186;2023-06-10T17:25:05;27.30;92.50
47921;DHT22;33686;48.770;9.186;2023-06-10T17:27:31;27.30;92.60
47921;DHT22;33686;48.770;9.186;2023-06-10T17:29:56;27.20;92.70
47921;DHT22;33686;48.770;9.186;2023-06-10T17:32:22;27.20;92.70
47921;DHT22;33686;48.770;9.186;2023-06-10T17:34:47;27.10;92.90
47921;DHT22;33686;48.770;9.186;2023-06-10T17:37:13;27.00;93.10
47921;DHT22;33686;48.770;9.186;2023-06-10T17:39:38;27.10;93.20
47921;DHT22;33686;48.770;9.186;2023-06-10T17:42:04;27.00;93.20
47921;DHT22;33686;48.770;9.186;2023-06-10T17:44:30;26.90;93.20
47921;DHT22;33686;48.770;9.186;2023-06-10T17:46:56;26.90;93.40
47921;DHT22;33686;48.770;9.186;2023-06-10T17:49:22;26.70;93.50
47921;DHT22;33686;48.770;9.186;2023-06-10T17:51:51;26.60;93.70
47921;DHT22;33686;48.770;9.186;2023-06-10T17:54:17;26.50;93.80
47921;DHT22;33686;48.770;9.186;2023-06-10T17:56:43;26.30;93.80
47921;DHT22;33686;48.770;9.186;2023-06-10T17:59:09;26.30;94.20
47921;DHT22;33686;48.770;9.186;2023-06-10T18:01:34;26.10;94.30
47921;DHT22;33686;48.770;9.186;2023-06-10T18:04:02;26.10;94.50
47921;DHT22;33686;48.770;9.186;2023-06-10T18:06:28;26.10;94.30
47921;DHT22;33686;48.770;9.186;2023-06-10T18:08:53;26.00;94.40
47921;DHT22;33686;48.770;9.186;2023-06-10T18:11:19;26.00;94.60
47921;DHT22;33686;48.770;9.186;2023-06-10T18:13:45;25.90;94.60
47921;DHT22;33686;48.770;9.186;2023-06-10T18:16:10;25.80;94.80
47921;DHT22;33686;48.770;9.186;2023-06-10T18:18:36;25.80;94.80
47921;DHT22;33686;48.770;9.186;2023-06-10T18:21:02;25.70;95.00
47921;DHT22;33686;48.770;9.186;2023-06-10T18:23:28;25.50;95.10
47921;DHT22;33686;48.770;9.186;2023-06-10T18:25:53;25.50;95.10
47921;DHT22;33686;48.770;9.186;2023-06-10T18:28:19;25.50;95.30
47921;DHT22;33686;48.770;9.186;2023-06-10T18:30:45;25.40;95.30
47921;DHT22;33686;48.770;9.186;2023-06-10T18:33:10;25.30;95.30
47921;DHT22;33686;48.770;9.186;2023-06-10T18:35:36;25.30;95.50
47921;DHT22;33686;48.770;9.186;2023-06-10T18:38:04;25.20;95.40
47921;DHT22;33686;48.770;9.186;2023-06-10T18:40:29;25.20;95.30
47921;DHT22;33686;48.770;9.186;2023-06-10T18:42:55;25.20;95.40
47921;DHT22;33686;48.770;9.186;2023-06-10T18:45:20;25.10;95.30
47921;DHT22;33686;48.770;9.186;2023-06-10T18:47:48;25.10;95.30
47921;DHT22;33686;48.770;9.186;2023-06-10T18:50:13;25.00;95.30
47921;DHT22;33686;48.770;9.186;2023-06-10T18:52:39;25.00;95.50
47921;DHT22;33686;48.770;9.186;2023-06-10T18:55:04;25.00;95.40
47921;DHT22;33686;48.770;9.186;2023-06-10T18:57:30;24.90;95.60
47921;DHT22;33686;48.770;9.186;2023-06-10T18:59:56;24.80;95.70
47921;DHT22;33686;48.770;9.186;2023-06-10T19:02:21;24.80;95.70
47921;DHT22;33686;48.770;9.186;2023-06-10T19:04:47;24.70;95.80
47921;DHT22;33686;48.770;9.186;2023-06-10T19:07:12;24.70;95.90
47921;DHT22;33686;48.770;9.186;2023-06-10T19:09:38;24.70;95.90
47921;DHT22;33686;48.770;9.186;2023-06-10T19:12:04;24.60;96.00
47921;DHT22;33686;48.770;9.186;2023-06-10T19:14:31;24.50;96.20
47921;DHT22;33686;48.770;9.186;2023-06-10T19:16:56;24.50;96.40
47921;DHT22;33686;48.770;9.186;2023-06-10T19:19:22;24.40;96.60
47921;DHT22;33686;48.770;9.186;2023-06-10T19:21:47;24.40;96.70
47921;DHT22;33686;48.770;9.186;2023-06-10T19:24:13;24.40;96.80
47921;DHT22;33686;48.770;9.186;2023-06-10T19:26:38;24.40;97.10
47921;DHT22;33686;48.770;9.186;2023-06-10T19:29:04;24.30;97.10
47921;DHT22;33686;48.770;9.186;2023-06-10T19:31:29;24.20;97.40
47921;DHT22;33686;48.770;9.186;2023-06-10T19:33:55;24.10;97.60
47921;DHT22;33686;48.770;9.186;2023-06-10T19:36:20;24.10;97.60
47921;DHT22;33686;48.770;9.186;2023-06-10T19:38:46;24.10;97.60
47921;DHT22;33686;48.770;9.186;2023-06-10T19:41:11;24.00;97.80
47921;DHT22;33686;48.770;9.186;2023-06-10T19:43:37;24.00;98.00
47921;DHT22;33686;48.770;9.186;2023-06-10T19:46:02;23.90;98.20
47921;DHT22;33686;48.770;9.186;2023-06-10T19:48:28;23.80;98.30
47921;DHT22;33686;48.770;9.186;2023-06-10T19:50:53;23.80;98.50
47921;DHT22;33686;48.770;9.186;2023-06-10T19:53:19;23.80;98.40
47921;DHT22;33686;48.770;9.186;2023-06-10T19:55:45;23.80;98.60
47921;DHT22;33686;48.770;9.186;2023-06-10T19:58:10;23.70;98.60
47921;DHT22;33686;48.770;9.186;2023-06-10T20:00:36;23.70;98.70
47921;DHT22;33686;48.770;9.186;2023-06-10T20:03:02;23.70;98.70
47921;DHT22;33686;48.770;9.186;2023-06-10T20:05:28;23.70;98.80
47921;DHT22;33686;48.770;9.186;2023-06-10T20:07:53;23.60;98.90
47921;DHT22;33686;48.770;9.186;2023-06-10T20:10:19;23.60;99.10
47921;DHT22;33686;48.770;9.186;2023-06-10T20:12:45;23.50;99.20
47921;DHT22;33686;48.770;9.186;2023-06-10T20:15:10;23.50;99.50
47921;DHT22;33686;48.770;9.186;2023-06-10T20:17:36;23.40;99.60
47921;DHT22;33686;48.770;9.186;2023-06-10T20:20:02;23.40;99.60
47921;DHT22;33686;48.770;9.186;2023-06-10T20:22:29;23.40;99.90
47921;DHT22;33686;48.770;9.186;2023-06-10T20:24:54;23.20;99.90
47921;DHT22;33686;48.770;9.186;2023-06-10T20:27:20;23.00;99.90
47921;DHT22;33686;48.770;9.186;2023-06-10T20:29:45;22.90;99.90
47921;DHT22;33686;48.770;9.186;2023-06-10T20:32:11;22.80;99.90
47921;DHT22;33686;48.770;9.186;2023-06-10T20:34:37;22.90;99.90
47921;DHT22;33686;48.770;9.186;2023-06-10T20:37:03;22.90;99.90
47921;DHT22;33686;48.770;9.186;2023-06-10T20:39:29;22.80;99.90
47921;DHT22;33686;48.770;9.186;2023-06-10T20:41:54;22.80;99.90
47921;DHT22;33686;48.770;9.186;2023-06-10T20:44:20;22.80;99.90